Latest Coastal Weather Observations for Mandurah

IDW60701

Issued at 12:33 pm WST Thursday 19 January 2017 (issued every 10 minutes, with the page automatically refreshed every 10 minutes)

About coastal observations | Map of coastal stations | Coastal observations for WA | Marine services | Other Formats
Station Details ID: 009977 Name: MANDURAH Lat: -32.52 Lon: 115.71 Height: 3.0 m
Data from the previous 72 hours. | See also: Recent months at Mandurah
Date/Time
WST
Temp
°C
Wind Pressure Rain since
9am
mm
Weather Cloud Vis
km
Sea
Height
m
Swell
Dir  Spd
kts
Gust
kts
hPa Trend Height
m
Period
s
Dir
19/12:30pm 22.7 SSW 12 18 1011.3 - 0.0 - - - - - - -
19/12:00pm 22.2 SSW 11 19 1011.7 - 0.0 - - - - - - -
19/11:30am 21.7 SSW 12 18 1012.1 - 0.0 - - - - - - -
19/11:00am 21.4 S 14 23 1012.4 - 0.0 - - - - - - -
19/10:30am 20.3 SSW 14 22 1012.6 - 0.0 - - - - - - -
19/10:00am 20.0 S 14 21 1012.6 - 0.0 - - - - - - -
19/09:30am 19.1 SSW 15 23 1012.6 - 0.0 - - - - - - -
19/09:00am 19.7 SSW 14 23 1012.5 - 0.0 - - - - - - -
19/08:30am 19.2 S 13 20 1012.3 - 0.0 - - - - - - -
19/08:00am 19.0 SSW 12 21 1012.1 - 0.0 - - - - - - -
19/07:30am 18.7 SSW 12 19 1011.7 - 0.0 - - - - - - -
19/07:00am 18.7 SSW 9 16 1011.6 - 0.0 - - - - - - -
19/06:30am 17.8 SE 3 5 1011.5 - 0.0 - - - - - - -
19/06:00am 17.9 S 5 10 1011.1 - 0.0 - - - - - - -
19/05:30am 18.3 S 7 13 1010.9 - 0.0 - - - - - - -
19/05:00am 18.4 SSW 10 16 1010.6 - 0.0 - - - - - - -
19/04:30am 18.6 SSW 9 15 1010.4 - 0.0 - - - - - - -
19/04:00am 18.5 SSW 10 17 1010.2 - 0.0 - - - - - - -
19/03:30am 18.3 S 12 17 1010.0 - 0.0 - - - - - - -
19/03:00am 18.2 SSW 9 15 1010.0 - 0.0 - - - - - - -
19/02:30am 18.3 SSW 9 13 1010.0 - 0.0 - - - - - - -
19/02:00am 18.5 SSW 10 17 1010.0 - 0.0 - - - - - - -
19/01:30am 18.7 SSW 11 17 1010.0 - 0.0 - - - - - - -
19/01:00am 19.0 SSW 11 18 1010.0 - 0.0 - - - - - - -
19/12:30am 19.3 SSW 11 18 1009.9 - 0.0 - - - - - - -
19/12:00am 19.4 S 11 17 1010.1 - 0.0 - - - - - - -
 
Date/Time
WST
Temp
°C
Wind Pressure Rain since
9am
mm
Weather Cloud Vis
km
Sea
Height
m
Swell
Dir  Spd
kts
Gust
kts
hPa Trend Height
m
Period
s
Dir
18/11:30pm 19.4 SSW 11 19 1010.3 - 0.0 - - - - - - -
18/11:00pm 19.5 SSW 14 24 1010.1 - 0.0 - - - - - - -
18/10:30pm 19.6 SSW 13 20 1010.0 - 0.0 - - - - - - -
18/10:00pm 19.7 SSW 12 21 1009.7 - 0.0 - - - - - - -
18/09:30pm 19.9 SSW 11 16 1009.2 - 0.0 - - - - - - -
18/09:00pm 20.1 SSW 11 21 1009.1 - 0.0 - - - - - - -
18/08:30pm 20.4 SSW 11 17 1008.7 - 0.0 - - - - - - -
18/08:00pm 20.6 SSW 11 17 1008.4 - 0.0 - - - - - - -
18/07:30pm 20.8 S 13 22 1008.1 - 0.0 - - - - - - -
18/07:00pm 22.1 SSW 12 17 1007.7 - 0.0 - - - - - - -
18/06:30pm 22.6 SSW 10 18 1007.5 - 0.0 - - - - - - -
18/06:00pm 22.3 SSW 10 16 1007.4 - 0.0 - - - - - - -
18/05:30pm 22.6 SSW 10 18 1007.3 - 0.0 - - - - - - -
18/05:00pm 22.7 SSW 10 16 1007.1 - 0.0 - - - - - - -
18/04:30pm 22.9 SW 9 14 1007.1 - 0.0 - - - - - - -
18/04:00pm 23.7 WSW 11 16 1007.1 - 0.0 - - - - - - -
18/03:30pm 24.4 SW 9 12 1007.0 - 0.0 - - - - - - -
18/03:00pm 24.8 SW 11 15 1007.3 - 0.0 - - - - - - -
18/02:30pm 26.2 SW 11 18 1007.5 - 0.0 - - - - - - -
18/02:00pm 26.2 SW 12 17 1007.7 - 0.0 - - - - - - -
18/01:30pm 28.0 WSW 13 20 1008.1 - 0.0 - - - - - - -
18/01:22pm 27.2 WSW 14 20 1008.1 - 0.0 - - - - - - -
18/01:00pm 29.7 WNW 7 8 1008.2 - 0.0 - - - - - - -
18/12:30pm 28.8 WNW 8 10 1008.7 - 0.0 - - - - - - -
18/12:00pm 29.3 WNW 4 5 1009.1 - 0.0 - - - - - - -
18/11:30am 28.3 NNW 4 5 1009.5 - 0.0 - - - - - - -
18/11:00am 28.3 NNE 5 8 1010.0 - 0.0 - - - - - - -
18/10:30am 28.4 ENE 6 10 1010.3 - 0.0 - - - - - - -
18/10:00am 27.1 ENE 8 11 1010.6 - 0.0 - - - - - - -
18/09:30am 25.8 ENE 9 12 1010.8 - 0.0 - - - - - - -
18/09:00am 24.1 ENE 9 13 1011.3 - 0.0 - - - - - - -
18/08:30am 22.6 ENE 9 13 1011.7 - 0.0 - - - - - - -
18/08:00am 21.0 ENE 12 17 1012.0 - 0.0 - - - - - - -
18/07:30am 19.9 ENE 13 22 1011.8 - 0.0 - - - - - - -
18/07:00am 18.9 ENE 10 20 1011.9 - 0.0 - - - - - - -
18/06:30am 18.0 ENE 10 17 1011.9 - 0.0 - - - - - - -
18/06:00am 17.1 E 7 12 1011.6 - 0.0 - - - - - - -
18/05:30am 17.0 E 9 13 1011.5 - 0.0 - - - - - - -
18/05:00am 17.3 E 10 15 1011.4 - 0.0 - - - - - - -
18/04:30am 17.6 E 10 17 1011.1 - 0.0 - - - - - - -
18/04:00am 17.9 E 11 18 1011.0 - 0.0 - - - - - - -
18/03:30am 18.4 E 12 18 1011.2 - 0.0 - - - - - - -
18/03:00am 18.9 E 9 15 1011.3 - 0.0 - - - - - - -
18/02:30am 19.4 E 9 14 1011.3 - 0.0 - - - - - - -
18/02:00am 20.0 E 11 17 1011.5 - 0.0 - - - - - - -
18/01:30am 20.7 E 12 19 1011.4 - 0.0 - - - - - - -
18/01:00am 21.3 E 10 17 1011.6 - 0.0 - - - - - - -
18/12:30am 21.9 E 11 18 1011.8 - 0.0 - - - - - - -
18/12:00am 22.2 E 10 17 1012.1 - 0.0 - - - - - - -
 
Date/Time
WST
Temp
°C
Wind Pressure Rain since
9am
mm
Weather Cloud Vis
km
Sea
Height
m
Swell
Dir  Spd
kts
Gust
kts
hPa Trend Height
m
Period
s
Dir
17/11:30pm 22.4 ESE 9 13 1012.1 - 0.0 - - - - - - -
17/11:00pm 22.6 ESE 8 13 1012.2 - 0.0 - - - - - - -
17/10:30pm 22.4 SE 6 7 1012.2 - 0.0 - - - - - - -
17/10:00pm 22.7 SSE 6 8 1012.3 - 0.0 - - - - - - -
17/09:30pm 22.7 SSE 5 7 1012.2 - 0.0 - - - - - - -
17/09:00pm 22.9 SSE 5 7 1012.2 - 0.0 - - - - - - -
17/08:30pm 22.9 S 6 9 1012.0 - 0.0 - - - - - - -
17/08:00pm 22.9 S 8 11 1011.8 - 0.0 - - - - - - -
17/07:30pm 23.1 S 9 16 1011.7 - 0.0 - - - - - - -
17/07:00pm 23.5 SSW 10 15 1011.4 - 0.0 - - - - - - -
17/06:30pm 23.9 SSW 10 16 1011.2 - 0.0 - - - - - - -
17/06:00pm 24.2 SSW 10 15 1011.1 - 0.0 - - - - - - -
17/05:30pm 24.5 SSW 12 19 1011.0 - 0.0 - - - - - - -
17/05:00pm 25.2 SSW 12 19 1011.2 - 0.0 - - - - - - -
17/04:30pm 24.8 SSW 13 19 1011.4 - 0.0 - - - - - - -
17/04:00pm 25.8 SSW 12 19 1011.7 - 0.0 - - - - - - -
17/03:30pm 26.4 SSW 11 17 1011.9 - 0.0 - - - - - - -
17/03:00pm 26.7 SSW 12 17 1012.0 - 0.0 - - - - - - -
17/02:30pm 27.5 SSW 9 16 1012.1 - 0.0 - - - - - - -
17/02:00pm 28.6 SSE 6 11 1012.5 - 0.0 - - - - - - -
17/01:30pm 28.6 ESE 6 13 1013.0 - 0.0 - - - - - - -
17/01:00pm 27.6 SSE 5 10 1013.3 - 0.0 - - - - - - -
17/12:30pm 26.9 ESE 4 10 1013.5 - 0.0 - - - - - - -
17/12:00pm 25.4 SE 7 13 1013.8 - 0.0 - - - - - - -
17/11:30am 25.4 ESE 6 12 1014.2 - 0.0 - - - - - - -
17/11:00am 24.8 ESE 8 15 1014.6 - 0.0 - - - - - - -
17/10:30am 23.0 SE 7 11 1014.9 - 0.0 - - - - - - -
17/10:00am 22.4 ESE 8 13 1015.2 - 0.0 - - - - - - -
17/09:30am 21.4 SE 10 16 1015.3 - 0.0 - - - - - - -
17/09:00am 20.3 ESE 10 16 1015.5 - 0.0 - - - - - - -
17/08:30am 19.7 ESE 10 16 1015.7 - 0.0 - - - - - - -
17/08:00am 18.8 ESE 10 15 1016.0 - 0.0 - - - - - - -
17/07:30am 17.9 SE 7 11 1016.3 - 0.0 - - - - - - -
17/07:00am 17.2 SE 9 15 1016.2 - 0.0 - - - - - - -
17/06:30am 16.3 SE 7 11 1016.1 - 0.0 - - - - - - -
17/06:00am 16.1 SE 9 12 1015.8 - 0.0 - - - - - - -
17/05:30am 16.1 SE 11 14 1015.4 - 0.0 - - - - - - -
17/05:00am 16.2 SSE 10 14 1015.0 - 0.0 - - - - - - -
17/04:30am 16.5 SE 11 16 1014.6 - 0.0 - - - - - - -
17/04:00am 16.7 SSE 9 14 1014.2 - 0.0 - - - - - - -
17/03:30am 17.1 SE 10 15 1014.0 - 0.0 - - - - - - -
17/03:00am 17.5 SE 9 13 1013.8 - 0.0 - - - - - - -
17/02:30am 17.7 SE 8 13 1013.5 - 0.0 - - - - - - -
17/02:00am 17.9 SE 10 15 1013.2 - 0.0 - - - - - - -
17/01:30am 18.1 SSE 9 14 1013.0 - 0.0 - - - - - - -
17/01:00am 18.1 SSE 11 16 1012.6 - 0.0 - - - - - - -
17/12:30am 18.3 S 12 21 1012.3 - 0.0 - - - - - - -
17/12:00am 18.6 S 13 20 1012.1 - 0.0 - - - - - - -
 
Date/Time
WST
Temp
°C
Wind Pressure Rain since
9am
mm
Weather Cloud Vis
km
Sea
Height
m
Swell
Dir  Spd
kts
Gust
kts
hPa Trend Height
m
Period
s
Dir
16/11:30pm 18.9 S 15 23 1012.0 - 0.0 - - - - - - -
16/11:00pm 19.5 S 15 23 1011.9 - 0.0 - - - - - - -
16/10:30pm 19.9 S 15 21 1011.8 - 0.0 - - - - - - -
16/10:00pm 20.4 S 14 23 1011.6 - 0.0 - - - - - - -
16/09:30pm 20.7 S 14 21 1011.4 - 0.0 - - - - - - -
16/09:04pm 20.9 S 15 26 1011.0 - 0.0 - - - - - - -
16/09:00pm 20.9 S 15 23 1010.9 - 0.0 - - - - - - -
16/08:30pm 21.3 S 15 25 1010.5 - 0.0 - - - - - - -
16/08:27pm 21.2 S 15 25 1010.4 - 0.0 - - - - - - -
16/08:00pm 21.5 S 14 23 1010.1 - 0.0 - - - - - - -
16/07:30pm 21.7 SSW 13 23 1009.8 - 0.0 - - - - - - -
16/07:20pm 21.8 SSW 15 25 1009.8 - 0.0 - - - - - - -
16/07:00pm 22.0 SSW 15 23 1009.5 - 0.0 - - - - - - -
16/06:32pm 22.4 SSW 17 28 1009.4 - 0.0 - - - - - - -
16/06:30pm 22.5 SSW 16 25 1009.5 - 0.0 - - - - - - -
16/06:04pm 22.9 SSW 15 26 1009.3 - 0.0 - - - - - - -
16/06:00pm 22.9 SSW 15 23 1009.3 - 0.0 - - - - - - -
16/05:30pm 23.2 SSW 15 23 1009.2 - 0.0 - - - - - - -
16/05:04pm 23.6 SSW 15 27 1009.2 - 0.0 - - - - - - -
16/05:00pm 23.4 SSW 14 23 1009.2 - 0.0 - - - - - - -
16/04:38pm 23.7 SSW 15 26 1009.3 - 0.0 - - - - - - -
16/04:30pm 23.5 SSW 16 24 1009.3 - 0.0 - - - - - - -
16/04:03pm 23.6 SSW 17 28 1009.4 - 0.0 - - - - - - -
16/04:00pm 23.8 SSW 16 25 1009.4 - 0.0 - - - - - - -
16/03:30pm 23.8 SSW 15 27 1009.7 - 0.0 - - - - - - -
16/03:27pm 23.5 SSW 15 27 1009.7 - 0.0 - - - - - - -
16/03:00pm 24.4 SSW 14 23 1009.9 - 0.0 - - - - - - -
16/02:37pm 24.1 SSW 15 26 1010.0 - 0.0 - - - - - - -
16/02:30pm 23.6 SSW 17 25 1009.9 - 0.0 - - - - - - -
16/02:00pm 23.2 SSW 13 20 1009.9 - 0.0 - - - - - - -
16/01:30pm 23.7 SSW 14 22 1010.0 - 0.0 - - - - - - -
16/01:00pm 23.7 SSW 15 23 1010.1 - 0.0 - - - - - - -

Other Formats:

Comma delimited format used in spreadsheet applications
http://www.bom.gov.au/fwo/IDW60701/IDW60701.94605.axf

JavaScript Object Notation format (JSON) in row-major order
http://www.bom.gov.au/fwo/IDW60701/IDW60701.94605.json